Time;durP1;ratioP1;P1;durP2;ratioP2;P2;SDS_P1;SDS_P2;PMS_P1;PMS_P2;Temp;Humidity;BMP_temperature;BMP_pressure;BME280_temperature;BME280_humidity;BME280_pressure;Samples;Min_cycle;Max_cycle;Signal;HPM_P1;HPM_P2
2024/04/10 00:01:37;;;;;;;2.33;1.35;;;;;;;;;;5419138;26;20069;-57
2024/04/10 00:04:03;;;;;;;1.83;1.02;;;;;;;;;;5418937;26;19992;-57
2024/04/10 00:06:29;;;;;;;2.17;1.25;;;;;;;;;;5419403;26;20575;-57
2024/04/10 00:08:55;;;;;;;1.88;1.08;;;;;;;;;;5419034;26;20441;-58
2024/04/10 00:11:24;;;;;;;2.40;1.15;;;;;;;;;;5419058;26;19992;-57
2024/04/10 00:13:50;;;;;;;2.10;1.00;;;;;;;;;;5418877;26;20008;-58
2024/04/10 00:16:16;;;;;;;1.08;0.60;;;;;;;;;;5418468;26;20060;-58
2024/04/10 00:18:42;;;;;;;3.40;0.88;;;;;;;;;;5418871;26;20015;-57
2024/04/10 00:21:08;;;;;;;6.97;1.20;;;;;;;;;;5418601;26;20003;-58
2024/04/10 00:23:34;;;;;;;4.57;1.33;;;;;;;;;;5418627;26;19996;-57
2024/04/10 00:26:01;;;;;;;3.40;0.93;;;;;;;;;;5418640;26;20322;-57
2024/04/10 00:28:28;;;;;;;2.47;1.08;;;;;;;;;;5418584;26;20445;-58
2024/04/10 00:30:54;;;;;;;2.55;1.45;;;;;;;;;;5418328;26;20003;-58
2024/04/10 00:33:20;;;;;;;1.60;0.85;;;;;;;;;;5418432;26;20007;-57
2024/04/10 00:35:55;;;;;;;2.63;1.13;;;;;;;;;;5418275;26;20320;-58
2024/04/10 00:38:21;;;;;;;2.63;1.00;;;;;;;;;;5418421;26;20003;-58
2024/04/10 00:40:55;;;;;;;2.13;1.02;;;;;;;;;;5418800;26;20004;-57
2024/04/10 00:43:20;;;;;;;2.63;1.08;;;;;;;;;;5418407;26;20002;-57
2024/04/10 00:45:50;;;;;;;3.80;1.50;;;;;;;;;;5418417;26;20350;-58
2024/04/10 00:48:16;;;;;;;2.35;1.23;;;;;;;;;;5418090;26;20464;-57
2024/04/10 00:50:42;;;;;;;1.48;0.70;;;;;;;;;;5417344;26;19996;-58
2024/04/10 00:53:08;;;;;;;2.72;1.10;;;;;;;;;;5418161;26;20505;-58
2024/04/10 00:55:35;;;;;;;1.98;1.15;;;;;;;;;;5417953;26;20007;-57
2024/04/10 00:58:00;;;;;;;3.38;1.15;;;;;;;;;;5417521;26;19999;-57
2024/04/10 01:00:28;;;;;;;2.45;0.98;;;;;;;;;;5417938;26;20071;-58
2024/04/10 01:02:54;;;;;;;5.63;1.02;;;;;;;;;;5417660;26;19991;-55
2024/04/10 01:05:20;;;;;;;1.83;0.85;;;;;;;;;;5417562;26;20321;-57
2024/04/10 01:07:46;;;;;;;2.05;1.05;;;;;;;;;;5417891;26;19996;-57
2024/04/10 01:10:12;;;;;;;3.20;1.30;;;;;;;;;;5417774;26;20072;-56
2024/04/10 01:12:39;;;;;;;2.47;1.20;;;;;;;;;;5417618;26;19992;-56
2024/04/10 01:15:05;;;;;;;3.35;1.00;;;;;;;;;;5417949;26;20006;-58
2024/04/10 01:17:31;;;;;;;2.42;1.13;;;;;;;;;;5417672;26;19999;-57
2024/04/10 01:19:57;;;;;;;1.33;0.80;;;;;;;;;;5418169;26;19995;-55
2024/04/10 01:22:23;;;;;;;2.90;0.88;;;;;;;;;;5418074;26;19995;-58
2024/04/10 01:24:51;;;;;;;1.70;0.70;;;;;;;;;;5417573;26;19998;-57
2024/04/10 01:27:17;;;;;;;2.70;0.85;;;;;;;;;;5417443;26;20067;-58
2024/04/10 01:29:43;;;;;;;2.08;0.90;;;;;;;;;;5417456;26;19999;-57
2024/04/10 01:32:09;;;;;;;1.38;0.68;;;;;;;;;;5417361;26;20460;-56
2024/04/10 01:34:35;;;;;;;2.50;1.17;;;;;;;;;;5417526;26;20429;-58
2024/04/10 01:37:01;;;;;;;3.28;0.55;;;;;;;;;;5417401;26;20000;-56
2024/04/10 01:39:27;;;;;;;1.95;1.00;;;;;;;;;;5417254;26;20358;-58
2024/04/10 01:41:53;;;;;;;1.40;0.77;;;;;;;;;;5417470;26;19996;-58
2024/04/10 01:44:19;;;;;;;2.33;0.68;;;;;;;;;;5417096;26;20006;-58
2024/04/10 01:46:46;;;;;;;1.15;0.52;;;;;;;;;;5417094;26;20003;-58
2024/04/10 01:49:12;;;;;;;2.30;0.80;;;;;;;;;;5417066;26;20020;-57
2024/04/10 01:51:38;;;;;;;4.30;1.00;;;;;;;;;;5417122;26;20411;-57
2024/04/10 01:54:04;;;;;;;1.33;0.75;;;;;;;;;;5417011;26;20003;-58
2024/04/10 01:56:29;;;;;;;1.67;0.70;;;;;;;;;;5417070;26;19999;-57
2024/04/10 01:58:55;;;;;;;2.58;1.25;;;;;;;;;;5417379;26;19999;-58
2024/04/10 02:01:21;;;;;;;1.83;1.30;;;;;;;;;;5417184;26;20494;-57
2024/04/10 02:03:48;;;;;;;3.38;1.02;;;;;;;;;;5419714;26;20064;-57
2024/04/10 02:06:14;;;;;;;2.30;1.05;;;;;;;;;;5420804;26;20003;-57
2024/04/10 02:08:40;;;;;;;1.92;1.10;;;;;;;;;;5421054;26;20475;-57
2024/04/10 02:13:51;;;;;;;3.45;0.88;;;;;;;;;;5421743;26;20031;-58
2024/04/10 02:16:17;;;;;;;2.35;0.88;;;;;;;;;;5420241;26;19995;-58
2024/04/10 02:18:43;;;;;;;0.88;0.47;;;;;;;;;;5420587;26;19995;-58
2024/04/10 02:21:09;;;;;;;1.83;0.95;;;;;;;;;;5420274;26;19992;-57
2024/04/10 02:23:35;;;;;;;1.25;0.65;;;;;;;;;;5420194;26;20342;-58
2024/04/10 02:26:11;;;;;;;2.70;1.13;;;;;;;;;;5420109;26;20003;-58
2024/04/10 02:28:37;;;;;;;1.73;1.00;;;;;;;;;;5420170;26;20000;-57
2024/04/10 02:31:03;;;;;;;3.20;1.23;;;;;;;;;;5420426;26;19996;-56
2024/04/10 02:33:33;;;;;;;2.65;1.13;;;;;;;;;;5420060;26;19995;-55
2024/04/10 02:35:59;;;;;;;2.38;1.10;;;;;;;;;;5420359;26;20000;-58
2024/04/10 02:38:26;;;;;;;3.00;1.05;;;;;;;;;;5420173;26;19994;-58
2024/04/10 02:40:52;;;;;;;1.85;0.82;;;;;;;;;;5419964;26;19995;-58
2024/04/10 02:43:18;;;;;;;1.02;0.60;;;;;;;;;;5420084;26;20432;-58
2024/04/10 02:45:53;;;;;;;1.70;0.98;;;;;;;;;;5420041;26;19992;-58
2024/04/10 02:48:19;;;;;;;1.33;0.65;;;;;;;;;;5420143;26;20325;-57
2024/04/10 02:50:44;;;;;;;1.85;0.77;;;;;;;;;;5420269;26;19999;-57
2024/04/10 02:53:10;;;;;;;2.42;1.08;;;;;;;;;;5420070;26;19999;-57
2024/04/10 02:55:36;;;;;;;2.22;1.00;;;;;;;;;;5419976;26;19996;-57
2024/04/10 02:58:02;;;;;;;3.00;0.95;;;;;;;;;;5419668;26;20002;-58
2024/04/10 03:00:29;;;;;;;2.40;1.27;;;;;;;;;;5420398;26;19996;-57
2024/04/10 03:02:55;;;;;;;1.65;1.02;;;;;;;;;;5419861;26;20038;-57
2024/04/10 03:05:21;;;;;;;3.15;1.08;;;;;;;;;;5419941;26;19996;-58
2024/04/10 03:07:47;;;;;;;1.27;0.68;;;;;;;;;;5420159;26;20008;-57
2024/04/10 03:10:13;;;;;;;4.55;1.20;;;;;;;;;;5420098;26;20123;-58
2024/04/10 03:12:38;;;;;;;1.77;0.77;;;;;;;;;;5419898;26;19992;-57
2024/04/10 03:15:07;;;;;;;4.10;1.35;;;;;;;;;;5418956;26;20000;-56
2024/04/10 03:17:33;;;;;;;2.05;0.95;;;;;;;;;;5419402;26;20047;-57
2024/04/10 03:19:59;;;;;;;2.83;1.30;;;;;;;;;;5419546;26;20006;-56
2024/04/10 03:22:25;;;;;;;2.03;1.13;;;;;;;;;;5419603;26;20004;-57
2024/04/10 03:24:51;;;;;;;3.75;0.85;;;;;;;;;;5419585;26;20362;-57
2024/04/10 03:27:17;;;;;;;2.08;0.95;;;;;;;;;;5419352;26;19996;-57
2024/04/10 03:29:43;;;;;;;1.50;0.80;;;;;;;;;;5419321;26;20026;-57
2024/04/10 03:32:09;;;;;;;4.18;1.48;;;;;;;;;;5419240;26;20010;-57
2024/04/10 03:34:35;;;;;;;5.32;1.50;;;;;;;;;;5419476;26;20438;-57
2024/04/10 03:37:01;;;;;;;1.48;0.90;;;;;;;;;;5419150;26;19995;-56
2024/04/10 03:39:27;;;;;;;2.33;1.30;;;;;;;;;;5419487;26;20067;-57
2024/04/10 03:41:53;;;;;;;3.67;1.35;;;;;;;;;;5419680;26;20007;-57
2024/04/10 03:44:19;;;;;;;1.80;1.00;;;;;;;;;;5418950;26;20444;-56
2024/04/10 03:46:45;;;;;;;6.55;1.38;;;;;;;;;;5419069;26;20340;-56
2024/04/10 03:49:11;;;;;;;3.75;1.40;;;;;;;;;;5419351;26;20000;-56
2024/04/10 03:51:36;;;;;;;3.13;1.13;;;;;;;;;;5419085;26;19996;-56
2024/04/10 03:54:02;;;;;;;3.90;1.83;;;;;;;;;;5419265;26;19998;-55
2024/04/10 03:56:28;;;;;;;2.22;1.40;;;;;;;;;;5418942;26;20422;-57
2024/04/10 03:58:54;;;;;;;3.42;1.42;;;;;;;;;;5418700;26;20400;-56
2024/04/10 04:01:20;;;;;;;4.35;1.65;;;;;;;;;;5418868;26;20399;-58
2024/04/10 04:03:46;;;;;;;2.78;1.20;;;;;;;;;;5418960;26;20006;-57
2024/04/10 04:06:12;;;;;;;2.38;1.33;;;;;;;;;;5419244;26;19999;-57
2024/04/10 04:08:38;;;;;;;2.53;1.42;;;;;;;;;;5419201;26;20003;-57
2024/04/10 04:11:04;;;;;;;1.52;0.90;;;;;;;;;;5419289;26;19995;-57
2024/04/10 04:13:31;;;;;;;3.60;1.40;;;;;;;;;;5418851;26;19999;-57
2024/04/10 04:15:56;;;;;;;4.15;1.33;;;;;;;;;;5418767;26;20342;-58
2024/04/10 04:18:22;;;;;;;2.92;1.02;;;;;;;;;;5418863;26;20069;-57
2024/04/10 04:20:49;;;;;;;1.90;0.95;;;;;;;;;;5418589;26;19999;-57
2024/04/10 04:23:15;;;;;;;5.03;1.58;;;;;;;;;;5418853;26;20003;-59
2024/04/10 04:25:41;;;;;;;2.97;1.10;;;;;;;;;;5417075;26;20089;-58
2024/04/10 04:28:07;;;;;;;4.45;1.17;;;;;;;;;;5418283;26;19996;-58
2024/04/10 04:30:33;;;;;;;2.22;1.20;;;;;;;;;;5418353;26;20008;-58
2024/04/10 04:32:59;;;;;;;2.47;0.98;;;;;;;;;;5419257;26;20006;-56
2024/04/10 04:35:26;;;;;;;3.38;1.48;;;;;;;;;;5418607;26;20157;-58
2024/04/10 04:37:56;;;;;;;2.70;1.05;;;;;;;;;;5418376;26;20063;-57
2024/04/10 04:40:22;;;;;;;2.15;1.17;;;;;;;;;;5418696;26;20031;-55
2024/04/10 04:42:48;;;;;;;1.55;0.80;;;;;;;;;;5418244;26;19999;-56
2024/04/10 04:45:14;;;;;;;1.77;0.70;;;;;;;;;;5418417;26;20000;-57
2024/04/10 04:47:40;;;;;;;5.47;1.40;;;;;;;;;;5418336;26;20321;-57
2024/04/10 04:50:08;;;;;;;2.90;1.27;;;;;;;;;;5418082;26;20371;-57
2024/04/10 04:52:34;;;;;;;1.58;0.85;;;;;;;;;;5416658;26;19999;-56
2024/04/10 04:55:01;;;;;;;4.05;1.33;;;;;;;;;;5418367;26;20003;-56
2024/04/10 04:57:26;;;;;;;3.35;1.30;;;;;;;;;;5418284;26;19992;-57
2024/04/10 04:59:52;;;;;;;3.85;1.10;;;;;;;;;;5418006;26;20321;-56
2024/04/10 05:02:18;;;;;;;3.30;1.27;;;;;;;;;;5418430;26;20417;-58
2024/04/10 05:05:02;;;;;;;1.77;0.93;;;;;;;;;;5417979;26;20417;-57
2024/04/10 05:07:28;;;;;;;2.35;1.25;;;;;;;;;;5418691;26;19995;-57
2024/04/10 05:09:55;;;;;;;2.35;1.20;;;;;;;;;;5418171;26;20387;-57
2024/04/10 05:12:21;;;;;;;4.90;1.35;;;;;;;;;;5417705;26;20007;-57
2024/04/10 05:14:53;;;;;;;2.53;1.42;;;;;;;;;;5417900;26;19991;-57
2024/04/10 05:17:20;;;;;;;4.57;1.73;;;;;;;;;;5417580;26;20445;-56
2024/04/10 05:19:46;;;;;;;5.13;1.23;;;;;;;;;;5417310;26;20514;-57
2024/04/10 05:22:13;;;;;;;3.80;1.08;;;;;;;;;;5417114;26;19995;-57
2024/04/10 05:24:40;;;;;;;4.00;1.67;;;;;;;;;;5417289;26;20460;-56
2024/04/10 05:27:06;;;;;;;6.57;1.42;;;;;;;;;;5417299;26;19999;-56
2024/04/10 05:29:39;;;;;;;2.42;1.30;;;;;;;;;;5418417;26;20007;-57
2024/04/10 05:32:05;;;;;;;2.13;1.15;;;;;;;;;;5417523;26;19996;-58
2024/04/10 05:34:31;;;;;;;4.93;1.55;;;;;;;;;;5417585;26;20066;-56
2024/04/10 05:36:56;;;;;;;2.65;1.30;;;;;;;;;;5417670;26;19995;-56
2024/04/10 05:39:26;;;;;;;4.13;1.63;;;;;;;;;;5421775;26;20019;-56
2024/04/10 05:41:52;;;;;;;5.28;1.45;;;;;;;;;;5420703;26;19995;-56
2024/04/10 05:44:18;;;;;;;4.28;1.08;;;;;;;;;;5420753;26;20060;-56
2024/04/10 05:46:44;;;;;;;2.70;1.40;;;;;;;;;;5420777;26;20004;-55
2024/04/10 05:49:10;;;;;;;4.00;1.10;;;;;;;;;;5421237;26;19996;-56
2024/04/10 05:51:36;;;;;;;5.38;1.83;;;;;;;;;;5420792;26;20003;-56
2024/04/10 05:54:03;;;;;;;1.80;0.90;;;;;;;;;;5420519;26;20063;-54
2024/04/10 05:56:29;;;;;;;2.08;1.30;;;;;;;;;;5420572;26;19999;-55
2024/04/10 05:58:55;;;;;;;2.13;0.85;;;;;;;;;;5420934;26;19999;-56
2024/04/10 06:01:21;;;;;;;2.20;1.10;;;;;;;;;;5420557;26;20003;-55
2024/04/10 06:03:50;;;;;;;3.17;1.00;;;;;;;;;;5420426;26;19996;-56
2024/04/10 06:06:17;;;;;;;4.22;1.35;;;;;;;;;;5420603;26;20006;-56
2024/04/10 06:08:43;;;;;;;2.45;1.35;;;;;;;;;;5420600;26;20027;-55
2024/04/10 06:11:09;;;;;;;2.15;1.30;;;;;;;;;;5420795;26;19992;-54
2024/04/10 06:13:35;;;;;;;4.60;1.75;;;;;;;;;;5420485;26;19996;-56
2024/04/10 06:16:02;;;;;;;2.10;1.00;;;;;;;;;;5420683;26;20437;-56
2024/04/10 06:18:28;;;;;;;4.22;1.77;;;;;;;;;;5420709;26;19996;-53
2024/04/10 06:21:01;;;;;;;4.00;1.73;;;;;;;;;;5420599;26;20028;-54
2024/04/10 06:23:28;;;;;;;6.07;1.25;;;;;;;;;;5420030;26;20429;-56
2024/04/10 06:25:54;;;;;;;4.97;1.00;;;;;;;;;;5420009;26;19996;-55
2024/04/10 06:28:20;;;;;;;4.13;1.40;;;;;;;;;;5420421;26;20000;-58
2024/04/10 06:30:46;;;;;;;2.13;1.10;;;;;;;;;;5420560;26;19995;-56
2024/04/10 06:33:15;;;;;;;2.38;0.88;;;;;;;;;;5420445;26;20444;-56
2024/04/10 06:35:41;;;;;;;3.97;1.17;;;;;;;;;;5420002;26;19999;-57
2024/04/10 06:38:07;;;;;;;3.22;1.02;;;;;;;;;;5420655;26;19999;-55
2024/04/10 06:40:33;;;;;;;2.83;1.20;;;;;;;;;;5420491;26;20010;-57
2024/04/10 06:42:59;;;;;;;2.58;1.08;;;;;;;;;;5419748;26;20314;-56
2024/04/10 06:45:25;;;;;;;5.20;1.15;;;;;;;;;;5420178;26;20007;-57
2024/04/10 06:47:51;;;;;;;3.65;1.02;;;;;;;;;;5420516;26;20001;-57
2024/04/10 06:50:17;;;;;;;5.28;1.52;;;;;;;;;;5419166;26;20042;-57
2024/04/10 06:52:43;;;;;;;5.80;1.40;;;;;;;;;;5420002;26;19991;-56
2024/04/10 06:55:09;;;;;;;5.40;1.63;;;;;;;;;;5419834;26;20064;-57
2024/04/10 06:57:35;;;;;;;3.38;0.98;;;;;;;;;;5420150;26;20000;-56
2024/04/10 07:00:04;;;;;;;4.55;1.60;;;;;;;;;;5420355;26;20065;-57
2024/04/10 07:02:30;;;;;;;5.30;1.88;;;;;;;;;;5419947;26;19995;-57
2024/04/10 07:04:56;;;;;;;3.50;1.17;;;;;;;;;;5420086;26;20010;-56
2024/04/10 07:07:22;;;;;;;5.57;1.60;;;;;;;;;;5419943;26;20010;-56
2024/04/10 07:09:50;;;;;;;2.95;1.05;;;;;;;;;;5419923;26;19991;-54
2024/04/10 07:12:16;;;;;;;6.68;1.63;;;;;;;;;;5419907;26;20003;-57
2024/04/10 07:14:42;;;;;;;7.43;1.40;;;;;;;;;;5419770;26;20097;-53
2024/04/10 07:17:09;;;;;;;4.65;1.35;;;;;;;;;;5419605;26;20010;-58
2024/04/10 07:19:34;;;;;;;3.25;1.63;;;;;;;;;;5419791;26;20310;-56
2024/04/10 07:22:04;;;;;;;10.98;1.70;;;;;;;;;;5419731;26;20003;-57
2024/04/10 07:24:31;;;;;;;4.20;1.58;;;;;;;;;;5419567;26;20007;-57
2024/04/10 07:26:57;;;;;;;3.70;1.65;;;;;;;;;;5419373;26;20024;-56
2024/04/10 07:29:23;;;;;;;3.67;1.35;;;;;;;;;;5419736;26;20006;-58
2024/04/10 07:31:49;;;;;;;7.35;1.48;;;;;;;;;;5419461;26;19999;-57
2024/04/10 07:34:17;;;;;;;5.28;1.38;;;;;;;;;;5419335;26;19999;-58
2024/04/10 07:36:43;;;;;;;3.75;1.00;;;;;;;;;;5419197;26;20002;-56
2024/04/10 07:39:09;;;;;;;8.88;1.73;;;;;;;;;;5419948;26;20026;-57
2024/04/10 07:41:36;;;;;;;5.68;1.15;;;;;;;;;;5419276;26;19995;-57
2024/04/10 07:44:02;;;;;;;5.15;1.25;;;;;;;;;;5419260;26;20007;-57
2024/04/10 07:46:28;;;;;;;3.40;1.45;;;;;;;;;;5419365;26;20036;-57
2024/04/10 07:48:55;;;;;;;3.47;0.90;;;;;;;;;;5419088;26;19995;-54
2024/04/10 07:51:21;;;;;;;3.67;1.58;;;;;;;;;;5419216;26;20006;-55
2024/04/10 07:53:48;;;;;;;11.70;1.42;;;;;;;;;;5419404;26;20004;-58
2024/04/10 07:56:14;;;;;;;2.53;1.02;;;;;;;;;;5419007;26;20010;-57
2024/04/10 07:58:40;;;;;;;12.82;1.70;;;;;;;;;;5418948;26;20000;-56
2024/04/10 08:01:06;;;;;;;4.05;1.50;;;;;;;;;;5418514;26;19995;-57
2024/04/10 08:03:32;;;;;;;3.38;1.67;;;;;;;;;;5418968;26;20001;-57
2024/04/10 08:05:59;;;;;;;2.08;1.02;;;;;;;;;;5419804;26;20014;-57
2024/04/10 08:08:25;;;;;;;10.93;1.92;;;;;;;;;;5418997;26;20003;-56
2024/04/10 08:11:04;;;;;;;2.70;1.02;;;;;;;;;;5418976;26;20024;-57
2024/04/10 08:13:31;;;;;;;7.88;1.83;;;;;;;;;;5418741;26;20453;-58
2024/04/10 08:15:59;;;;;;;5.10;1.60;;;;;;;;;;5418252;26;20004;-55
2024/04/10 08:18:28;;;;;;;4.35;1.48;;;;;;;;;;5418727;26;20000;-54
2024/04/10 08:21:04;;;;;;;2.20;0.88;;;;;;;;;;5418781;26;20004;-56
2024/04/10 08:23:30;;;;;;;6.22;1.48;;;;;;;;;;5418736;26;19995;-56
2024/04/10 08:25:57;;;;;;;1.88;1.02;;;;;;;;;;5418817;26;20010;-51
2024/04/10 08:28:25;;;;;;;2.88;0.82;;;;;;;;;;5419103;26;20124;-57
2024/04/10 08:30:51;;;;;;;3.47;1.23;;;;;;;;;;5418789;26;19992;-58
2024/04/10 08:33:17;;;;;;;4.40;1.55;;;;;;;;;;5418915;26;19999;-55
2024/04/10 08:35:43;;;;;;;5.20;1.92;;;;;;;;;;5418498;26;19995;-57
2024/04/10 08:38:09;;;;;;;3.85;1.63;;;;;;;;;;5418390;26;19995;-57
2024/04/10 08:40:37;;;;;;;4.53;1.58;;;;;;;;;;5418747;26;20429;-56
2024/04/10 08:43:06;;;;;;;10.95;1.65;;;;;;;;;;5418572;26;20005;-56
2024/04/10 08:45:33;;;;;;;4.80;1.20;;;;;;;;;;5418661;26;19995;-58
2024/04/10 08:48:00;;;;;;;4.38;1.50;;;;;;;;;;5418717;26;19996;-56
2024/04/10 08:50:26;;;;;;;6.07;1.73;;;;;;;;;;5418320;26;19999;-55
2024/04/10 08:52:54;;;;;;;6.25;1.52;;;;;;;;;;5418276;26;20006;-57
2024/04/10 08:55:20;;;;;;;3.05;1.30;;;;;;;;;;5418617;26;19996;-58
2024/04/10 08:57:46;;;;;;;4.90;1.60;;;;;;;;;;5418683;26;19995;-57
2024/04/10 09:00:12;;;;;;;4.65;1.45;;;;;;;;;;5418155;26;20041;-58
2024/04/10 09:02:38;;;;;;;4.22;1.48;;;;;;;;;;5418217;26;20073;-57
2024/04/10 09:05:04;;;;;;;3.17;1.13;;;;;;;;;;5417852;26;19999;-56
2024/04/10 09:07:30;;;;;;;2.15;0.90;;;;;;;;;;5418039;26;19991;-57
2024/04/10 09:10:07;;;;;;;4.30;1.30;;;;;;;;;;5418945;26;20006;-58
2024/04/10 09:12:33;;;;;;;4.03;1.23;;;;;;;;;;5416909;26;19995;-58
2024/04/10 09:15:09;;;;;;;6.43;2.13;;;;;;;;;;5418001;26;19991;-57
2024/04/10 09:17:35;;;;;;;3.80;1.00;;;;;;;;;;5417956;26;20437;-56
2024/04/10 09:20:11;;;;;;;9.38;2.35;;;;;;;;;;5418080;26;20006;-56
2024/04/10 09:22:37;;;;;;;3.42;1.02;;;;;;;;;;5418163;26;19999;-58
2024/04/10 09:25:12;;;;;;;2.92;1.15;;;;;;;;;;5417749;26;20000;-57
2024/04/10 09:27:38;;;;;;;3.63;1.35;;;;;;;;;;5417739;26;19996;-56
2024/04/10 09:30:05;;;;;;;2.40;1.10;;;;;;;;;;5418103;26;19996;-56
2024/04/10 09:32:35;;;;;;;7.35;1.35;;;;;;;;;;5417575;26;20487;-58
2024/04/10 09:35:02;;;;;;;3.33;1.15;;;;;;;;;;5417980;26;20033;-55
2024/04/10 09:37:31;;;;;;;4.45;0.98;;;;;;;;;;5417735;26;19995;-56
2024/04/10 09:39:57;;;;;;;3.75;1.42;;;;;;;;;;5417610;26;20011;-55
2024/04/10 09:42:31;;;;;;;4.68;1.52;;;;;;;;;;5417454;26;20108;-58
2024/04/10 09:45:11;;;;;;;3.67;2.00;;;;;;;;;;5417284;26;20019;-58
2024/04/10 09:47:37;;;;;;;8.60;1.35;;;;;;;;;;5417368;26;19996;-56
2024/04/10 09:50:09;;;;;;;3.97;1.60;;;;;;;;;;5417423;26;20314;-56
2024/04/10 09:52:35;;;;;;;2.78;1.20;;;;;;;;;;5418029;26;20000;-56
2024/04/10 09:55:01;;;;;;;3.80;1.52;;;;;;;;;;5417454;26;20003;-56
2024/04/10 09:57:28;;;;;;;4.70;1.83;;;;;;;;;;5417474;26;19992;-57
2024/04/10 09:59:54;;;;;;;3.15;1.30;;;;;;;;;;5417208;26;19999;-55
2024/04/10 10:02:20;;;;;;;3.92;1.58;;;;;;;;;;5417399;26;20349;-55
2024/04/10 10:04:46;;;;;;;2.20;1.05;;;;;;;;;;5417012;26;20066;-54
2024/04/10 10:07:24;;;;;;;3.47;1.25;;;;;;;;;;5417394;26;19996;-56
2024/04/10 10:09:50;;;;;;;3.05;1.30;;;;;;;;;;5417278;26;19991;-58
2024/04/10 10:12:26;;;;;;;2.40;1.27;;;;;;;;;;5417632;26;20028;-55
2024/04/10 10:14:52;;;;;;;3.35;1.10;;;;;;;;;;5417462;26;20007;-56
2024/04/10 10:17:24;;;;;;;7.38;1.52;;;;;;;;;;5417536;26;19999;-56
2024/04/10 10:19:50;;;;;;;3.45;1.55;;;;;;;;;;5416009;26;20011;-58
2024/04/10 10:22:16;;;;;;;6.50;1.35;;;;;;;;;;5417099;26;20006;-57
2024/04/10 10:24:42;;;;;;;4.93;2.05;;;;;;;;;;5419868;26;20065;-56
2024/04/10 10:27:08;;;;;;;3.70;1.50;;;;;;;;;;5421111;26;19992;-57
2024/04/10 10:29:36;;;;;;;4.55;1.42;;;;;;;;;;5421193;26;20000;-56
2024/04/10 10:32:02;;;;;;;4.72;1.20;;;;;;;;;;5421226;26;19992;-57
2024/04/10 10:34:28;;;;;;;2.20;1.10;;;;;;;;;;5420956;26;19999;-57
2024/04/10 10:36:54;;;;;;;8.30;1.50;;;;;;;;;;5420878;26;19996;-53
2024/04/10 10:39:20;;;;;;;6.05;1.75;;;;;;;;;;5420770;26;20028;-56
2024/04/10 10:41:46;;;;;;;2.38;1.02;;;;;;;;;;5420980;26;19992;-53
2024/04/10 10:44:20;;;;;;;2.60;1.10;;;;;;;;;;5420681;26;20368;-53
2024/04/10 10:46:46;;;;;;;2.47;1.02;;;;;;;;;;5420134;26;20003;-56
2024/04/10 10:49:14;;;;;;;3.08;1.20;;;;;;;;;;5420695;26;20000;-56
2024/04/10 10:51:42;;;;;;;2.50;0.95;;;;;;;;;;5420022;26;20003;-56
2024/04/10 10:54:09;;;;;;;1.80;1.08;;;;;;;;;;5420342;26;20010;-56
2024/04/10 10:56:35;;;;;;;4.28;1.30;;;;;;;;;;5420076;26;20007;-54
2024/04/10 10:59:08;;;;;;;2.58;1.27;;;;;;;;;;5420341;26;20325;-57
2024/04/10 11:01:34;;;;;;;1.52;0.75;;;;;;;;;;5420179;26;19995;-57
2024/04/10 11:04:07;;;;;;;4.10;1.25;;;;;;;;;;5419371;26;20003;-57
2024/04/10 11:06:33;;;;;;;10.07;1.98;;;;;;;;;;5420373;26;20064;-56
2024/04/10 11:09:12;;;;;;;3.10;1.52;;;;;;;;;;5420320;26;20426;-57
2024/04/10 11:11:38;;;;;;;3.15;1.23;;;;;;;;;;5420735;26;20449;-56
2024/04/10 11:14:04;;;;;;;3.15;1.15;;;;;;;;;;5419978;26;19995;-57
2024/04/10 11:16:31;;;;;;;1.70;0.95;;;;;;;;;;5419991;26;19999;-56
2024/04/10 11:18:57;;;;;;;2.17;1.25;;;;;;;;;;5420031;26;19995;-56
2024/04/10 11:21:23;;;;;;;4.63;1.05;;;;;;;;;;5418215;26;19996;-57
2024/04/10 11:23:49;;;;;;;3.80;1.10;;;;;;;;;;5419872;26;20002;-56
2024/04/10 11:26:15;;;;;;;3.05;1.08;;;;;;;;;;5419883;26;20329;-56
2024/04/10 11:28:41;;;;;;;2.85;1.25;;;;;;;;;;5419852;26;20000;-55
2024/04/10 11:31:07;;;;;;;2.55;1.10;;;;;;;;;;5420001;26;20003;-57
2024/04/10 11:33:33;;;;;;;2.83;0.82;;;;;;;;;;5420292;26;20027;-57
2024/04/10 11:36:00;;;;;;;5.22;1.95;;;;;;;;;;5419331;26;20002;-55
2024/04/10 11:38:26;;;;;;;3.53;0.98;;;;;;;;;;5419715;26;19999;-57
2024/04/10 11:40:52;;;;;;;2.30;0.77;;;;;;;;;;5419645;26;20027;-57
2024/04/10 11:43:18;;;;;;;3.63;1.10;;;;;;;;;;5419577;26;20003;-57
2024/04/10 11:45:46;;;;;;;1.90;0.93;;;;;;;;;;5419195;26;19995;-57
2024/04/10 11:48:12;;;;;;;1.95;1.00;;;;;;;;;;5419187;26;19995;-57
2024/04/10 11:50:38;;;;;;;1.23;0.60;;;;;;;;;;5419343;26;19999;-57
2024/04/10 11:53:04;;;;;;;1.83;0.93;;;;;;;;;;5419273;26;19991;-57
2024/04/10 11:55:30;;;;;;;2.33;1.08;;;;;;;;;;5419055;26;20072;-57
2024/04/10 11:57:56;;;;;;;2.83;0.68;;;;;;;;;;5418965;26;19991;-56
2024/04/10 12:00:22;;;;;;;1.27;0.47;;;;;;;;;;5420671;26;20003;-57
2024/04/10 12:02:48;;;;;;;1.85;0.93;;;;;;;;;;5417256;26;20002;-57
2024/04/10 12:05:14;;;;;;;4.05;0.90;;;;;;;;;;5417247;26;20035;-58
2024/04/10 12:07:43;;;;;;;5.50;1.38;;;;;;;;;;5419195;26;19996;-58
2024/04/10 12:10:09;;;;;;;2.75;0.98;;;;;;;;;;5419258;26;19995;-57
2024/04/10 12:12:35;;;;;;;2.72;1.13;;;;;;;;;;5419283;26;20401;-57
2024/04/10 12:15:01;;;;;;;2.78;0.98;;;;;;;;;;5419811;26;19996;-57
2024/04/10 12:17:29;;;;;;;1.73;1.10;;;;;;;;;;5419090;26;20434;-57
2024/04/10 12:19:55;;;;;;;3.33;1.00;;;;;;;;;;5419047;26;20007;-58
2024/04/10 12:22:21;;;;;;;2.40;0.80;;;;;;;;;;5419057;26;20069;-56
2024/04/10 12:24:47;;;;;;;3.85;1.20;;;;;;;;;;5418935;26;20349;-57
2024/04/10 12:27:13;;;;;;;3.38;1.13;;;;;;;;;;5419352;26;20006;-57
2024/04/10 12:29:39;;;;;;;2.85;1.13;;;;;;;;;;5419371;26;20003;-57
2024/04/10 12:32:05;;;;;;;3.95;0.85;;;;;;;;;;5418947;26;20000;-57
2024/04/10 12:34:31;;;;;;;1.63;0.75;;;;;;;;;;5419092;26;19999;-57
2024/04/10 12:39:42;;;;;;;2.05;1.02;;;;;;;;;;5420397;26;20009;-58
2024/04/10 12:42:08;;;;;;;3.03;0.90;;;;;;;;;;5418400;26;20441;-57
2024/04/10 12:44:37;;;;;;;2.67;0.77;;;;;;;;;;5417808;26;20002;-58
2024/04/10 12:47:03;;;;;;;3.10;0.60;;;;;;;;;;5416235;26;19999;-58
2024/04/10 12:49:31;;;;;;;2.75;0.90;;;;;;;;;;5418578;26;20329;-57
2024/04/10 12:51:57;;;;;;;1.55;0.77;;;;;;;;;;5418124;26;20004;-56
2024/04/10 12:54:23;;;;;;;2.42;1.42;;;;;;;;;;5418063;26;20006;-57
2024/04/10 12:56:51;;;;;;;2.67;1.23;;;;;;;;;;5417470;26;20027;-57
2024/04/10 12:59:17;;;;;;;2.92;1.05;;;;;;;;;;5418502;26;19999;-56
2024/04/10 13:01:43;;;;;;;2.33;0.95;;;;;;;;;;5418031;26;20007;-57
2024/04/10 13:04:10;;;;;;;1.48;0.80;;;;;;;;;;5417554;26;20019;-57
2024/04/10 13:08:11;;;;;;;1.25;0.75;;;;;;;;;;5472419;26;20316;-57
2024/04/10 13:10:37;;;;;;;2.13;0.70;;;;;;;;;;5437268;26;20368;-58
2024/04/10 13:13:03;;;;;;;3.50;1.20;;;;;;;;;;5436696;26;19994;-57
2024/04/10 13:15:29;;;;;;;3.97;0.98;;;;;;;;;;5436657;26;19998;-57
2024/04/10 13:17:55;;;;;;;3.28;1.23;;;;;;;;;;5436289;26;19991;-57
2024/04/10 13:20:21;;;;;;;3.22;0.98;;;;;;;;;;5436431;26;19991;-58
2024/04/10 13:22:48;;;;;;;3.55;0.90;;;;;;;;;;5436296;26;19987;-57
2024/04/10 13:25:14;;;;;;;4.38;0.90;;;;;;;;;;5436340;26;19999;-58
2024/04/10 13:27:41;;;;;;;2.47;1.00;;;;;;;;;;5436199;26;20317;-58
2024/04/10 13:30:07;;;;;;;6.38;1.05;;;;;;;;;;5436370;26;20028;-58
2024/04/10 13:32:33;;;;;;;1.80;0.68;;;;;;;;;;5436316;26;20061;-57
2024/04/10 13:35:00;;;;;;;1.50;0.73;;;;;;;;;;5436181;26;20346;-57
2024/04/10 13:37:26;;;;;;;2.05;0.98;;;;;;;;;;5436107;26;19987;-58
2024/04/10 13:39:52;;;;;;;2.97;0.90;;;;;;;;;;5436092;26;19997;-58
2024/04/10 13:42:18;;;;;;;4.13;0.90;;;;;;;;;;5435970;26;19995;-58
2024/04/10 13:44:46;;;;;;;2.55;1.27;;;;;;;;;;5410165;26;20318;-58
2024/04/10 13:47:13;;;;;;;3.17;1.13;;;;;;;;;;5400328;26;19992;-56
2024/04/10 13:49:39;;;;;;;4.30;1.05;;;;;;;;;;5400591;26;19988;-59
2024/04/10 13:52:06;;;;;;;2.55;0.98;;;;;;;;;;5400160;26;19999;-58
2024/04/10 13:54:34;;;;;;;3.05;1.10;;;;;;;;;;5400850;26;20002;-58
2024/04/10 13:57:01;;;;;;;1.83;0.77;;;;;;;;;;5400501;26;20008;-58
2024/04/10 13:59:27;;;;;;;1.73;0.70;;;;;;;;;;5400544;26;19997;-58
2024/04/10 14:01:53;;;;;;;2.85;1.17;;;;;;;;;;5400225;26;19996;-58
2024/04/10 14:04:19;;;;;;;3.45;0.80;;;;;;;;;;5399919;26;20012;-58
2024/04/10 14:06:45;;;;;;;1.63;1.00;;;;;;;;;;5399853;26;20070;-58
2024/04/10 14:09:11;;;;;;;4.53;1.50;;;;;;;;;;5400649;26;19999;-59
2024/04/10 14:11:37;;;;;;;4.45;1.30;;;;;;;;;;5400161;26;20000;-58
2024/04/10 14:14:03;;;;;;;2.85;1.23;;;;;;;;;;5400640;26;19996;-59
2024/04/10 14:16:29;;;;;;;2.83;0.88;;;;;;;;;;5400321;26;19998;-58
2024/04/10 14:18:55;;;;;;;1.77;0.90;;;;;;;;;;5387993;26;20296;-58
2024/04/10 14:21:22;;;;;;;2.85;1.23;;;;;;;;;;5384879;26;19999;-58
2024/04/10 14:23:47;;;;;;;5.80;1.15;;;;;;;;;;5384860;26;20000;-58
2024/04/10 14:26:14;;;;;;;2.90;0.68;;;;;;;;;;5384894;26;20003;-57
2024/04/10 14:28:40;;;;;;;2.38;0.90;;;;;;;;;;5384688;26;20007;-58
2024/04/10 14:31:08;;;;;;;1.70;0.88;;;;;;;;;;5384532;26;20000;-58
2024/04/10 14:33:35;;;;;;;4.57;0.85;;;;;;;;;;5384514;26;20000;-58
2024/04/10 14:36:01;;;;;;;1.42;0.82;;;;;;;;;;5383093;26;20007;-58
2024/04/10 14:38:27;;;;;;;2.47;1.05;;;;;;;;;;5384786;26;20004;-56
2024/04/10 14:40:55;;;;;;;3.05;1.02;;;;;;;;;;5384433;26;20011;-58
2024/04/10 14:43:20;;;;;;;2.20;0.70;;;;;;;;;;5384201;26;19992;-58
2024/04/10 14:45:47;;;;;;;3.47;1.27;;;;;;;;;;5384285;26;20011;-58
2024/04/10 14:48:13;;;;;;;3.00;1.05;;;;;;;;;;5384481;26;20008;-58